sensor_id;sensor_type;location;lat;lon;timestamp;P1;durP1;ratioP1;P2;durP2;ratioP2
59828;SDS011;45708;51.848;107.620;2023-03-01T00:05:00;59.27;;;28.27;;
59828;SDS011;45708;51.848;107.620;2023-03-01T00:10:01;71.07;;;30.73;;
59828;SDS011;45708;51.848;107.620;2023-03-01T00:15:02;81.27;;;35.23;;
59828;SDS011;45708;51.848;107.620;2023-03-01T00:20:04;89.03;;;38.30;;
59828;SDS011;45708;51.848;107.620;2023-03-01T00:25:05;97.67;;;44.40;;
59828;SDS011;45708;51.848;107.620;2023-03-01T00:30:07;97.23;;;40.80;;
59828;SDS011;45708;51.848;107.620;2023-03-01T00:35:08;17.77;;;15.07;;
59828;SDS011;45708;51.848;107.620;2023-03-01T00:40:09;68.03;;;30.90;;
59828;SDS011;45708;51.848;107.620;2023-03-01T00:45:10;39.70;;;18.57;;
59828;SDS011;45708;51.848;107.620;2023-03-01T00:50:11;43.00;;;18.77;;
59828;SDS011;45708;51.848;107.620;2023-03-01T00:55:12;49.87;;;25.20;;
59828;SDS011;45708;51.848;107.620;2023-03-01T01:00:13;23.20;;;16.03;;
59828;SDS011;45708;51.848;107.620;2023-03-01T01:05:15;124.07;;;55.33;;
59828;SDS011;45708;51.848;107.620;2023-03-01T01:10:15;78.97;;;39.43;;
59828;SDS011;45708;51.848;107.620;2023-03-01T01:15:16;156.40;;;57.73;;
59828;SDS011;45708;51.848;107.620;2023-03-01T01:20:18;155.37;;;59.33;;
59828;SDS011;45708;51.848;107.620;2023-03-01T01:25:18;34.83;;;19.63;;
59828;SDS011;45708;51.848;107.620;2023-03-01T01:30:19;26.17;;;12.50;;
59828;SDS011;45708;51.848;107.620;2023-03-01T01:35:20;78.97;;;33.73;;
59828;SDS011;45708;51.848;107.620;2023-03-01T01:40:21;50.60;;;26.00;;
59828;SDS011;45708;51.848;107.620;2023-03-01T01:50:28;36.67;;;16.77;;
59828;SDS011;45708;51.848;107.620;2023-03-01T01:55:30;18.30;;;14.20;;
59828;SDS011;45708;51.848;107.620;2023-03-01T02:00:31;17.67;;;13.20;;
59828;SDS011;45708;51.848;107.620;2023-03-01T02:10:55;11.10;;;8.30;;
59828;SDS011;45708;51.848;107.620;2023-03-01T02:15:57;67.40;;;31.47;;
59828;SDS011;45708;51.848;107.620;2023-03-01T02:31:21;45.47;;;19.95;;
59828;SDS011;45708;51.848;107.620;2023-03-01T02:36:24;33.07;;;15.47;;
59828;SDS011;45708;51.848;107.620;2023-03-01T02:41:28;67.70;;;32.07;;
59828;SDS011;45708;51.848;107.620;2023-03-01T02:46:33;31.53;;;19.27;;
59828;SDS011;45708;51.848;107.620;2023-03-01T02:57:27;29.83;;;14.80;;
59828;SDS011;45708;51.848;107.620;2023-03-01T03:02:30;35.17;;;16.63;;
59828;SDS011;45708;51.848;107.620;2023-03-01T03:07:31;22.23;;;11.83;;
59828;SDS011;45708;51.848;107.620;2023-03-01T03:12:34;35.03;;;17.13;;
59828;SDS011;45708;51.848;107.620;2023-03-01T03:17:35;33.13;;;12.13;;
59828;SDS011;45708;51.848;107.620;2023-03-01T03:22:38;32.20;;;17.53;;
59828;SDS011;45708;51.848;107.620;2023-03-01T03:27:40;25.17;;;13.83;;
59828;SDS011;45708;51.848;107.620;2023-03-01T03:32:44;26.97;;;15.27;;
59828;SDS011;45708;51.848;107.620;2023-03-01T03:37:46;27.73;;;14.53;;
59828;SDS011;45708;51.848;107.620;2023-03-01T03:42:47;16.83;;;10.07;;
59828;SDS011;45708;51.848;107.620;2023-03-01T03:47:48;32.57;;;15.73;;
59828;SDS011;45708;51.848;107.620;2023-03-01T03:52:48;45.07;;;20.00;;
59828;SDS011;45708;51.848;107.620;2023-03-01T03:57:49;27.30;;;13.77;;
59828;SDS011;45708;51.848;107.620;2023-03-01T04:02:50;38.03;;;18.33;;
59828;SDS011;45708;51.848;107.620;2023-03-01T04:07:51;34.83;;;15.70;;
59828;SDS011;45708;51.848;107.620;2023-03-01T04:12:52;27.93;;;13.73;;
59828;SDS011;45708;51.848;107.620;2023-03-01T04:17:53;24.13;;;13.33;;
59828;SDS011;45708;51.848;107.620;2023-03-01T04:23:05;14.47;;;7.73;;
59828;SDS011;45708;51.848;107.620;2023-03-01T04:28:27;36.73;;;18.90;;
59828;SDS011;45708;51.848;107.620;2023-03-01T04:33:32;35.83;;;10.80;;
59828;SDS011;45708;51.848;107.620;2023-03-01T04:38:33;28.20;;;13.17;;
59828;SDS011;45708;51.848;107.620;2023-03-01T04:43:34;15.87;;;9.70;;
59828;SDS011;45708;51.848;107.620;2023-03-01T04:48:40;9.57;;;5.13;;
59828;SDS011;45708;51.848;107.620;2023-03-01T04:53:42;17.60;;;8.70;;
59828;SDS011;45708;51.848;107.620;2023-03-01T04:58:43;20.27;;;6.07;;
59828;SDS011;45708;51.848;107.620;2023-03-01T05:03:49;21.17;;;8.87;;
59828;SDS011;45708;51.848;107.620;2023-03-01T05:08:51;19.40;;;9.67;;
59828;SDS011;45708;51.848;107.620;2023-03-01T05:13:52;24.73;;;9.63;;
59828;SDS011;45708;51.848;107.620;2023-03-01T09:05:44;24.73;;;12.63;;
59828;SDS011;45708;51.848;107.620;2023-03-01T09:10:45;28.07;;;10.87;;
59828;SDS011;45708;51.848;107.620;2023-03-01T09:15:46;19.47;;;7.57;;
59828;SDS011;45708;51.848;107.620;2023-03-01T09:20:47;23.03;;;13.10;;
59828;SDS011;45708;51.848;107.620;2023-03-01T09:25:48;18.70;;;9.43;;
59828;SDS011;45708;51.848;107.620;2023-03-01T09:30:48;25.67;;;11.17;;
59828;SDS011;45708;51.848;107.620;2023-03-01T09:35:49;23.30;;;9.73;;
59828;SDS011;45708;51.848;107.620;2023-03-01T09:40:55;21.20;;;10.40;;
59828;SDS011;45708;51.848;107.620;2023-03-01T09:45:59;32.40;;;14.80;;
59828;SDS011;45708;51.848;107.620;2023-03-01T09:51:06;30.93;;;14.37;;
59828;SDS011;45708;51.848;107.620;2023-03-01T09:56:16;25.70;;;11.47;;
59828;SDS011;45708;51.848;107.620;2023-03-01T10:01:43;23.83;;;11.10;;
59828;SDS011;45708;51.848;107.620;2023-03-01T10:12:43;53.87;;;22.20;;
59828;SDS011;45708;51.848;107.620;2023-03-01T10:17:49;39.23;;;19.67;;
59828;SDS011;45708;51.848;107.620;2023-03-01T10:22:57;43.17;;;17.87;;
59828;SDS011;45708;51.848;107.620;2023-03-01T10:28:16;37.17;;;16.07;;
59828;SDS011;45708;51.848;107.620;2023-03-01T10:33:21;32.20;;;17.27;;
59828;SDS011;45708;51.848;107.620;2023-03-01T10:38:25;42.77;;;19.67;;
59828;SDS011;45708;51.848;107.620;2023-03-01T10:43:27;38.23;;;18.87;;
59828;SDS011;45708;51.848;107.620;2023-03-01T10:48:43;71.90;;;30.57;;
59828;SDS011;45708;51.848;107.620;2023-03-01T10:53:48;137.47;;;58.50;;
59828;SDS011;45708;51.848;107.620;2023-03-01T10:58:57;161.20;;;64.73;;
59828;SDS011;45708;51.848;107.620;2023-03-01T11:14:16;142.53;;;55.70;;
59828;SDS011;45708;51.848;107.620;2023-03-01T11:19:21;122.73;;;49.07;;
59828;SDS011;45708;51.848;107.620;2023-03-01T11:24:39;164.07;;;64.47;;
59828;SDS011;45708;51.848;107.620;2023-03-01T11:29:48;150.80;;;57.47;;
59828;SDS011;45708;51.848;107.620;2023-03-01T11:34:59;164.83;;;63.13;;
59828;SDS011;45708;51.848;107.620;2023-03-01T11:40:13;170.23;;;65.67;;
59828;SDS011;45708;51.848;107.620;2023-03-01T11:45:22;164.83;;;65.97;;
59828;SDS011;45708;51.848;107.620;2023-03-01T11:50:30;147.07;;;58.60;;
59828;SDS011;45708;51.848;107.620;2023-03-01T11:55:46;151.57;;;64.03;;
59828;SDS011;45708;51.848;107.620;2023-03-01T12:16:23;133.40;;;59.67;;
59828;SDS011;45708;51.848;107.620;2023-03-01T12:21:44;136.23;;;56.87;;
59828;SDS011;45708;51.848;107.620;2023-03-01T12:37:53;186.90;;;80.30;;
59828;SDS011;45708;51.848;107.620;2023-03-01T12:54:15;183.27;;;61.83;;
59828;SDS011;45708;51.848;107.620;2023-03-01T12:59:39;163.07;;;62.00;;
59828;SDS011;45708;51.848;107.620;2023-03-01T13:10:40;223.80;;;89.10;;
59828;SDS011;45708;51.848;107.620;2023-03-01T13:15:49;224.33;;;92.27;;
59828;SDS011;45708;51.848;107.620;2023-03-01T13:20:51;293.03;;;116.90;;
59828;SDS011;45708;51.848;107.620;2023-03-01T13:30:59;202.77;;;82.20;;
59828;SDS011;45708;51.848;107.620;2023-03-01T13:36:01;96.80;;;42.30;;
59828;SDS011;45708;51.848;107.620;2023-03-01T13:41:03;150.53;;;57.73;;
59828;SDS011;45708;51.848;107.620;2023-03-01T13:46:09;58.27;;;28.00;;
59828;SDS011;45708;51.848;107.620;2023-03-01T13:51:31;24.90;;;12.37;;
59828;SDS011;45708;51.848;107.620;2023-03-01T13:56:36;14.07;;;10.10;;
59828;SDS011;45708;51.848;107.620;2023-03-01T14:01:38;96.47;;;38.43;;
59828;SDS011;45708;51.848;107.620;2023-03-01T14:06:38;105.93;;;43.57;;
59828;SDS011;45708;51.848;107.620;2023-03-01T14:11:49;117.40;;;45.77;;
59828;SDS011;45708;51.848;107.620;2023-03-01T14:22:17;59.47;;;23.67;;
59828;SDS011;45708;51.848;107.620;2023-03-01T14:27:40;50.30;;;20.60;;
59828;SDS011;45708;51.848;107.620;2023-03-01T14:32:42;27.27;;;12.03;;
59828;SDS011;45708;51.848;107.620;2023-03-01T14:37:51;22.92;;;10.57;;
59828;SDS011;45708;51.848;107.620;2023-03-01T14:42:53;12.53;;;8.20;;
59828;SDS011;45708;51.848;107.620;2023-03-01T14:47:58;33.77;;;14.63;;
59828;SDS011;45708;51.848;107.620;2023-03-01T14:53:03;50.20;;;21.57;;
59828;SDS011;45708;51.848;107.620;2023-03-01T14:58:12;39.73;;;16.03;;
59828;SDS011;45708;51.848;107.620;2023-03-01T15:03:16;25.43;;;11.60;;
59828;SDS011;45708;51.848;107.620;2023-03-01T15:08:24;40.10;;;17.43;;
59828;SDS011;45708;51.848;107.620;2023-03-01T15:13:30;57.87;;;23.00;;
59828;SDS011;45708;51.848;107.620;2023-03-01T15:18:35;28.33;;;13.77;;
59828;SDS011;45708;51.848;107.620;2023-03-01T15:23:36;66.20;;;23.50;;
59828;SDS011;45708;51.848;107.620;2023-03-01T15:28:41;28.00;;;12.80;;
59828;SDS011;45708;51.848;107.620;2023-03-01T15:33:49;59.67;;;26.70;;
59828;SDS011;45708;51.848;107.620;2023-03-01T15:43:55;37.60;;;19.93;;
59828;SDS011;45708;51.848;107.620;2023-03-01T15:48:58;42.97;;;21.63;;
59828;SDS011;45708;51.848;107.620;2023-03-01T15:54:04;35.00;;;14.67;;
59828;SDS011;45708;51.848;107.620;2023-03-01T15:59:25;45.83;;;19.90;;
59828;SDS011;45708;51.848;107.620;2023-03-01T16:04:26;40.97;;;19.20;;
59828;SDS011;45708;51.848;107.620;2023-03-01T16:09:27;41.60;;;19.77;;
59828;SDS011;45708;51.848;107.620;2023-03-01T16:14:27;21.47;;;13.03;;
59828;SDS011;45708;51.848;107.620;2023-03-01T16:19:28;31.43;;;10.47;;
59828;SDS011;45708;51.848;107.620;2023-03-01T16:24:29;34.27;;;14.20;;
59828;SDS011;45708;51.848;107.620;2023-03-01T16:29:30;55.43;;;19.73;;
59828;SDS011;45708;51.848;107.620;2023-03-01T16:34:31;41.93;;;20.63;;
59828;SDS011;45708;51.848;107.620;2023-03-01T16:39:32;53.93;;;22.93;;
59828;SDS011;45708;51.848;107.620;2023-03-01T16:44:33;48.40;;;22.57;;
59828;SDS011;45708;51.848;107.620;2023-03-01T16:49:34;33.70;;;16.63;;
59828;SDS011;45708;51.848;107.620;2023-03-01T16:54:37;43.47;;;23.60;;
59828;SDS011;45708;51.848;107.620;2023-03-01T16:59:38;43.30;;;22.30;;
59828;SDS011;45708;51.848;107.620;2023-03-01T17:04:40;38.90;;;17.73;;
59828;SDS011;45708;51.848;107.620;2023-03-01T17:09:41;42.80;;;18.33;;
59828;SDS011;45708;51.848;107.620;2023-03-01T17:14:42;33.77;;;13.70;;
59828;SDS011;45708;51.848;107.620;2023-03-01T17:19:43;43.47;;;18.63;;
59828;SDS011;45708;51.848;107.620;2023-03-01T17:24:44;40.27;;;18.37;;
59828;SDS011;45708;51.848;107.620;2023-03-01T17:29:45;30.10;;;14.37;;
59828;SDS011;45708;51.848;107.620;2023-03-01T17:34:46;31.83;;;13.83;;
59828;SDS011;45708;51.848;107.620;2023-03-01T17:39:48;23.07;;;10.67;;
59828;SDS011;45708;51.848;107.620;2023-03-01T17:44:50;32.00;;;12.23;;
59828;SDS011;45708;51.848;107.620;2023-03-01T17:49:50;22.90;;;11.07;;
59828;SDS011;45708;51.848;107.620;2023-03-01T17:54:51;17.50;;;8.50;;
59828;SDS011;45708;51.848;107.620;2023-03-01T17:59:52;15.03;;;7.87;;
59828;SDS011;45708;51.848;107.620;2023-03-01T18:04:56;22.00;;;9.93;;
59828;SDS011;45708;51.848;107.620;2023-03-01T18:09:57;26.67;;;13.13;;
59828;SDS011;45708;51.848;107.620;2023-03-01T18:14:58;23.70;;;12.70;;
59828;SDS011;45708;51.848;107.620;2023-03-01T18:19:59;14.27;;;5.50;;
59828;SDS011;45708;51.848;107.620;2023-03-01T18:25:00;7.20;;;4.53;;
59828;SDS011;45708;51.848;107.620;2023-03-01T18:30:01;11.20;;;6.20;;
59828;SDS011;45708;51.848;107.620;2023-03-01T18:35:04;14.13;;;7.00;;
59828;SDS011;45708;51.848;107.620;2023-03-01T18:40:06;14.93;;;8.53;;
59828;SDS011;45708;51.848;107.620;2023-03-01T18:45:07;12.70;;;7.33;;
59828;SDS011;45708;51.848;107.620;2023-03-01T18:50:08;18.17;;;8.20;;
59828;SDS011;45708;51.848;107.620;2023-03-01T18:55:10;23.13;;;10.27;;
59828;SDS011;45708;51.848;107.620;2023-03-01T19:00:11;29.47;;;10.30;;
59828;SDS011;45708;51.848;107.620;2023-03-01T19:05:12;23.70;;;10.20;;
59828;SDS011;45708;51.848;107.620;2023-03-01T19:10:13;15.43;;;7.27;;
59828;SDS011;45708;51.848;107.620;2023-03-01T19:15:14;28.27;;;9.80;;
59828;SDS011;45708;51.848;107.620;2023-03-01T19:20:15;10.10;;;5.67;;
59828;SDS011;45708;51.848;107.620;2023-03-01T19:25:16;14.63;;;8.50;;
59828;SDS011;45708;51.848;107.620;2023-03-01T19:30:17;18.50;;;11.60;;
59828;SDS011;45708;51.848;107.620;2023-03-01T19:35:18;33.70;;;14.83;;
59828;SDS011;45708;51.848;107.620;2023-03-01T19:40:19;30.07;;;13.13;;
59828;SDS011;45708;51.848;107.620;2023-03-01T19:45:20;25.27;;;10.90;;
59828;SDS011;45708;51.848;107.620;2023-03-01T19:50:21;76.97;;;23.43;;
59828;SDS011;45708;51.848;107.620;2023-03-01T19:55:22;23.97;;;8.90;;
59828;SDS011;45708;51.848;107.620;2023-03-01T20:00:23;19.13;;;8.97;;
59828;SDS011;45708;51.848;107.620;2023-03-01T20:05:24;20.17;;;9.97;;
59828;SDS011;45708;51.848;107.620;2023-03-01T20:10:27;23.17;;;10.97;;
59828;SDS011;45708;51.848;107.620;2023-03-01T20:15:28;43.30;;;17.00;;
59828;SDS011;45708;51.848;107.620;2023-03-01T20:20:30;10.97;;;7.87;;
59828;SDS011;45708;51.848;107.620;2023-03-01T20:25:31;16.00;;;8.60;;
59828;SDS011;45708;51.848;107.620;2023-03-01T20:30:31;14.00;;;7.20;;
59828;SDS011;45708;51.848;107.620;2023-03-01T20:35:32;13.53;;;5.33;;
59828;SDS011;45708;51.848;107.620;2023-03-01T20:40:35;10.60;;;5.07;;
59828;SDS011;45708;51.848;107.620;2023-03-01T20:45:37;9.73;;;5.47;;
59828;SDS011;45708;51.848;107.620;2023-03-01T20:50:39;13.20;;;5.97;;
59828;SDS011;45708;51.848;107.620;2023-03-01T20:55:40;16.90;;;7.40;;
59828;SDS011;45708;51.848;107.620;2023-03-01T21:00:41;8.83;;;3.67;;
59828;SDS011;45708;51.848;107.620;2023-03-01T21:05:42;13.33;;;6.23;;
59828;SDS011;45708;51.848;107.620;2023-03-01T21:10:46;8.33;;;5.10;;
59828;SDS011;45708;51.848;107.620;2023-03-01T21:21:03;15.53;;;5.13;;
59828;SDS011;45708;51.848;107.620;2023-03-01T21:26:13;11.47;;;6.00;;
59828;SDS011;45708;51.848;107.620;2023-03-01T21:31:17;9.43;;;5.40;;
59828;SDS011;45708;51.848;107.620;2023-03-01T21:36:22;12.00;;;6.03;;
59828;SDS011;45708;51.848;107.620;2023-03-01T21:41:24;4.77;;;4.27;;
59828;SDS011;45708;51.848;107.620;2023-03-01T21:46:31;11.60;;;4.63;;
59828;SDS011;45708;51.848;107.620;2023-03-01T21:51:34;5.20;;;3.23;;
59828;SDS011;45708;51.848;107.620;2023-03-01T21:56:36;7.70;;;6.13;;
59828;SDS011;45708;51.848;107.620;2023-03-01T22:01:36;11.67;;;4.80;;
59828;SDS011;45708;51.848;107.620;2023-03-01T22:06:38;5.50;;;4.07;;
59828;SDS011;45708;51.848;107.620;2023-03-01T22:11:42;15.13;;;5.00;;
59828;SDS011;45708;51.848;107.620;2023-03-01T22:16:45;12.10;;;4.23;;
59828;SDS011;45708;51.848;107.620;2023-03-01T22:21:48;6.97;;;2.90;;
59828;SDS011;45708;51.848;107.620;2023-03-01T22:26:51;6.70;;;3.00;;
59828;SDS011;45708;51.848;107.620;2023-03-01T22:31:53;5.30;;;4.80;;
59828;SDS011;45708;51.848;107.620;2023-03-01T22:36:55;9.90;;;5.37;;
59828;SDS011;45708;51.848;107.620;2023-03-01T22:41:57;9.90;;;4.63;;
59828;SDS011;45708;51.848;107.620;2023-03-01T22:46:57;9.63;;;5.43;;
59828;SDS011;45708;51.848;107.620;2023-03-01T22:51:58;9.90;;;4.20;;
59828;SDS011;45708;51.848;107.620;2023-03-01T22:56:59;11.23;;;7.80;;
59828;SDS011;45708;51.848;107.620;2023-03-01T23:02:00;9.13;;;5.60;;
59828;SDS011;45708;51.848;107.620;2023-03-01T23:07:01;21.77;;;7.23;;
59828;SDS011;45708;51.848;107.620;2023-03-01T23:12:02;23.60;;;7.33;;
59828;SDS011;45708;51.848;107.620;2023-03-01T23:17:03;10.73;;;4.60;;
59828;SDS011;45708;51.848;107.620;2023-03-01T23:22:04;6.37;;;3.83;;
59828;SDS011;45708;51.848;107.620;2023-03-01T23:27:05;3.67;;;3.47;;
59828;SDS011;45708;51.848;107.620;2023-03-01T23:32:06;4.03;;;2.90;;
59828;SDS011;45708;51.848;107.620;2023-03-01T23:37:08;12.07;;;6.20;;
59828;SDS011;45708;51.848;107.620;2023-03-01T23:42:09;9.33;;;3.43;;
59828;SDS011;45708;51.848;107.620;2023-03-01T23:47:10;14.07;;;5.30;;
59828;SDS011;45708;51.848;107.620;2023-03-01T23:52:11;5.87;;;4.20;;
59828;SDS011;45708;51.848;107.620;2023-03-01T23:57:12;11.17;;;6.60;;
